createdAt,value
2022-10-09T00:00:21.649Z,98914.13
2022-10-09T00:01:22.548Z,98918.13
2022-10-09T00:01:35.373Z,98915.66
2022-10-09T00:01:48.220Z,98913.28
2022-10-09T00:02:01.515Z,98914.06
2022-10-09T00:02:14.444Z,98911.06
2022-10-09T00:02:27.398Z,98909.34
2022-10-09T00:02:40.367Z,98912.81
2022-10-09T00:02:53.236Z,98914.81
2022-10-09T00:03:06.371Z,98914.94
2022-10-09T00:03:39.818Z,98913.19
2022-10-09T00:03:53.824Z,98912.06
2022-10-09T00:04:07.088Z,98916.53
2022-10-09T00:04:39.855Z,98913.81
2022-10-09T00:05:12.628Z,98914.81
2022-10-09T00:05:27.021Z,98918.00
2022-10-09T00:05:40.083Z,98914.53
2022-10-09T00:05:52.904Z,98911.13
2022-10-09T00:06:06.465Z,98909.34
2022-10-09T00:06:22.120Z,98918.13
2022-10-09T00:06:34.985Z,98917.03
2022-10-09T00:06:48.649Z,98914.22
2022-10-09T00:07:01.468Z,98915.41
2022-10-09T00:07:14.340Z,98913.53
2022-10-09T00:07:27.519Z,98914.28
2022-10-09T00:07:41.036Z,98919.53
2022-10-09T00:08:13.772Z,98915.00
2022-10-09T00:08:46.681Z,98914.00
2022-10-09T00:09:01.897Z,98914.47
2022-10-09T00:09:14.928Z,98918.41
2022-10-09T00:09:29.961Z,98916.69
2022-10-09T00:09:42.841Z,98917.28
2022-10-09T00:09:56.116Z,98918.13
2022-10-09T00:10:29.526Z,98913.53
2022-10-09T00:10:43.167Z,98921.09
2022-10-09T00:11:18.631Z,98918.53
2022-10-09T00:11:32.807Z,98921.06
2022-10-09T00:11:45.673Z,98921.53
2022-10-09T00:11:58.474Z,98918.09
2022-10-09T00:12:11.293Z,98914.13
2022-10-09T00:12:24.104Z,98923.56
2022-10-09T00:12:37.150Z,98917.13
2022-10-09T00:12:50.315Z,98924.13
2022-10-09T00:13:03.472Z,98921.41
2022-10-09T00:13:16.761Z,98913.81
2022-10-09T00:13:29.541Z,98919.66
2022-10-09T00:13:42.646Z,98913.63
2022-10-09T00:13:56.057Z,98916.28
2022-10-09T00:14:08.861Z,98916.28
2022-10-09T00:14:21.778Z,98920.84
2022-10-09T00:14:34.577Z,98916.22
2022-10-09T00:14:47.423Z,98916.47
2022-10-09T00:15:00.245Z,98919.59
2022-10-09T00:15:13.262Z,98919.47
2022-10-09T00:15:26.159Z,98918.41
2022-10-09T00:16:01.777Z,98918.09
2022-10-09T00:16:34.632Z,98916.94
2022-10-09T00:16:47.614Z,98920.81
2022-10-09T00:17:00.621Z,98920.75
2022-10-09T00:17:13.521Z,98919.72
2022-10-09T00:17:26.333Z,98920.81
2022-10-09T00:17:39.304Z,98923.72
2022-10-09T00:18:14.044Z,98919.13
2022-10-09T00:18:27.115Z,98922.53
2022-10-09T00:18:39.963Z,98923.31
2022-10-09T00:18:53.012Z,98917.16
2022-10-09T00:19:06.361Z,98922.41
2022-10-09T00:19:39.120Z,98924.19
2022-10-09T00:19:51.930Z,98912.47
2022-10-09T00:20:05.311Z,98914.19
2022-10-09T00:20:41.823Z,98915.22
2022-10-09T00:20:54.640Z,98912.38
2022-10-09T00:21:17.300Z,98920.19
2022-10-09T00:21:50.075Z,98921.94
2022-10-09T00:22:02.979Z,98915.03
2022-10-09T00:22:15.806Z,98919.34
2022-10-09T00:22:29.009Z,98917.53
2022-10-09T00:22:43.555Z,98914.16
2022-10-09T00:23:17.496Z,98917.63
2022-10-09T00:23:32.554Z,98909.44
2022-10-09T00:23:45.433Z,98920.19
2022-10-09T00:24:18.162Z,98912.16
2022-10-09T00:24:31.121Z,98923.41
2022-10-09T00:24:43.999Z,98917.22
2022-10-09T00:24:56.865Z,98910.28
2022-10-09T00:25:09.904Z,98913.09
2022-10-09T00:25:22.865Z,98914.75
2022-10-09T00:25:57.318Z,98913.88
2022-10-09T00:26:11.918Z,98919.09
2022-10-09T00:26:25.071Z,98913.78
2022-10-09T00:26:37.882Z,98911.03
2022-10-09T00:26:50.734Z,98915.22
2022-10-09T00:27:03.691Z,98917.75
2022-10-09T00:27:16.948Z,98918.69
2022-10-09T00:27:29.854Z,98910.72
2022-10-09T00:27:42.778Z,98918.00
2022-10-09T00:27:57.701Z,98919.72
2022-10-09T00:28:34.238Z,98910.72
2022-10-09T00:28:50.197Z,98913.38
2022-10-09T00:29:22.889Z,98915.91
2022-10-09T00:29:36.084Z,98912.16
2022-10-09T00:29:49.387Z,98917.47
2022-10-09T00:30:02.344Z,98914.81
2022-10-09T00:30:15.184Z,98911.69
2022-10-09T00:30:28.018Z,98917.69
2022-10-09T00:30:40.909Z,98913.50
2022-10-09T00:31:15.613Z,98913.63
2022-10-09T00:31:29.130Z,98914.41
2022-10-09T00:32:01.873Z,98915.97
2022-10-09T00:32:14.695Z,98910.22
2022-10-09T00:32:27.527Z,98915.59
2022-10-09T00:32:40.378Z,98909.50
2022-10-09T00:32:53.384Z,98914.88
2022-10-09T00:33:06.246Z,98913.03
2022-10-09T00:33:39.235Z,98922.06
2022-10-09T00:34:11.981Z,98912.00
2022-10-09T00:34:24.786Z,98912.56
2022-10-09T00:34:57.571Z,98911.91
2022-10-09T00:35:10.421Z,98919.88
2022-10-09T00:35:23.585Z,98905.50
2022-10-09T00:35:38.951Z,98908.03
2022-10-09T00:36:14.251Z,98912.47
2022-10-09T00:36:27.583Z,98911.47
2022-10-09T00:36:40.810Z,98907.16
2022-10-09T00:36:54.202Z,98913.28
2022-10-09T00:37:28.472Z,98903.72
2022-10-09T00:37:41.308Z,98908.25
2022-10-09T00:37:54.134Z,98901.38
2022-10-09T00:38:07.176Z,98909.34
2022-10-09T00:38:20.434Z,98909.34
2022-10-09T00:38:33.594Z,98908.25
2022-10-09T00:38:46.547Z,98910.75
2022-10-09T00:38:59.448Z,98904.56
2022-10-09T00:39:12.281Z,98901.69
2022-10-09T00:39:25.099Z,98908.88
2022-10-09T00:39:57.845Z,98908.03
2022-10-09T00:40:10.803Z,98907.09
2022-10-09T00:40:24.331Z,98902.00
2022-10-09T00:40:37.472Z,98902.84
2022-10-09T00:40:50.350Z,98900.84
2022-10-09T00:41:03.199Z,98902.72
2022-10-09T00:41:20.819Z,98901.13
2022-10-09T00:41:34.561Z,98901.91
2022-10-09T00:41:47.411Z,98897.31
2022-10-09T00:42:01.573Z,98904.31
2022-10-09T00:42:14.794Z,98899.78
2022-10-09T00:42:27.697Z,98901.84
2022-10-09T00:42:40.560Z,98899.34
2022-10-09T00:42:57.592Z,98902.13
2022-10-09T00:43:15.423Z,98899.97
2022-10-09T00:43:50.948Z,98893.16
2022-10-09T00:44:24.401Z,98899.41
2022-10-09T00:44:54.365Z,98899.19
2022-10-09T00:45:10.381Z,98899.41
2022-10-09T00:45:49.868Z,98893.78
2022-10-09T00:46:02.812Z,98899.62
2022-10-09T00:46:37.268Z,98905.41
2022-10-09T00:46:50.713Z,98894.41
2022-10-09T00:47:03.537Z,98899.94
2022-10-09T00:47:27.728Z,98901.69
2022-10-09T00:48:23.651Z,98898.00
2022-10-09T00:48:36.667Z,98890.56
2022-10-09T00:49:15.216Z,98901.13
2022-10-09T00:49:29.463Z,98896.69
2022-10-09T00:50:06.065Z,98899.41
2022-10-09T00:50:45.187Z,98889.50
2022-10-09T00:50:58.535Z,98890.09
2022-10-09T00:51:11.396Z,98890.34
2022-10-09T00:51:44.931Z,98886.31
2022-10-09T00:52:17.861Z,98887.84
2022-10-09T00:52:55.165Z,98887.78
2022-10-09T00:53:28.812Z,98891.22
2022-10-09T00:53:41.645Z,98886.69
2022-10-09T00:53:54.459Z,98885.72
2022-10-09T00:54:29.016Z,98884.97
2022-10-09T00:55:02.062Z,98878.78
2022-10-09T00:55:35.139Z,98883.25
2022-10-09T00:56:08.292Z,98881.37
2022-10-09T00:56:21.305Z,98886.91
2022-10-09T00:56:34.740Z,98882.78
2022-10-09T00:57:08.799Z,98888.78
2022-10-09T00:57:42.415Z,98881.44
2022-10-09T00:57:56.114Z,98887.63
2022-10-09T00:58:28.879Z,98884.88
2022-10-09T00:58:41.900Z,98879.66
2022-10-09T00:58:55.657Z,98883.31
2022-10-09T00:59:28.587Z,98877.28
2022-10-09T01:00:02.413Z,98881.91
2022-10-09T01:00:19.321Z,98876.97
2022-10-09T01:00:32.286Z,98872.69
2022-10-09T01:00:45.328Z,98872.63
2022-10-09T01:00:58.343Z,98882.28
2022-10-09T01:01:11.337Z,98875.97
2022-10-09T01:01:24.481Z,98880.41
2022-10-09T01:01:38.892Z,98871.59
2022-10-09T01:02:11.610Z,98868.84
2022-10-09T01:02:24.545Z,98871.84
2022-10-09T01:02:37.988Z,98873.13
2022-10-09T01:03:10.671Z,98874.03
2022-10-09T01:03:43.586Z,98877.22
2022-10-09T01:04:16.592Z,98871.38
2022-10-09T01:04:29.805Z,98871.25
2022-10-09T01:04:42.879Z,98870.19
2022-10-09T01:04:55.694Z,98867.28
2022-10-09T01:05:09.140Z,98871.59
2022-10-09T01:05:49.810Z,98876.75
2022-10-09T01:06:29.631Z,98873.16
2022-10-09T01:07:27.873Z,98867.06
2022-10-09T01:08:08.519Z,98873.22
2022-10-09T01:09:06.185Z,98874.63
2022-10-09T01:09:57.444Z,98878.06
2022-10-09T01:10:18.223Z,98873.53
2022-10-09T01:10:50.425Z,98871.59
2022-10-09T01:12:10.636Z,98880.59
2022-10-09T01:13:01.516Z,98875.97
2022-10-09T01:13:42.979Z,98875.13
2022-10-09T01:14:19.237Z,98875.88
2022-10-09T01:15:10.108Z,98875.00
2022-10-09T01:15:48.434Z,98886.34
2022-10-09T01:16:07.241Z,98881.25
2022-10-09T01:16:44.615Z,98879.31
2022-10-09T01:17:25.611Z,98878.19
2022-10-09T01:17:40.516Z,98883.25
2022-10-09T01:18:05.200Z,98874.41
2022-10-09T01:18:20.378Z,98877.94
2022-10-09T01:18:37.690Z,98883.31
2022-10-09T01:19:07.022Z,98880.06
2022-10-09T01:20:07.754Z,98880.06
2022-10-09T01:21:03.233Z,98878.84
2022-10-09T01:21:41.877Z,98882.38
2022-10-09T01:22:32.605Z,98880.50
2022-10-09T01:23:03.711Z,98874.59
2022-10-09T01:23:49.203Z,98875.41
2022-10-09T01:24:46.641Z,98876.41
2022-10-09T01:25:08.471Z,98877.84
2022-10-09T01:26:09.612Z,98882.16
2022-10-09T01:28:15.945Z,98884.31
2022-10-09T01:28:29.132Z,98874.09
2022-10-09T01:28:43.844Z,98884.09
2022-10-09T01:29:16.633Z,98880.34
2022-10-09T01:29:33.832Z,98881.06
2022-10-09T01:29:49.824Z,98875.34
2022-10-09T01:30:08.078Z,98880.22
2022-10-09T01:30:40.863Z,98878.38
2022-10-09T01:30:53.809Z,98877.28
2022-10-09T01:31:07.032Z,98875.56
2022-10-09T01:31:20.017Z,98875.47
2022-10-09T01:31:36.473Z,98871.88
2022-10-09T01:32:09.542Z,98875.41
2022-10-09T01:32:25.358Z,98873.06
2022-10-09T01:32:40.056Z,98879.22
2022-10-09T01:33:12.984Z,98876.34
2022-10-09T01:33:27.215Z,98872.69
2022-10-09T01:33:40.192Z,98870.75
2022-10-09T01:33:53.643Z,98871.53
2022-10-09T01:34:06.792Z,98876.19
2022-10-09T01:34:39.790Z,98872.47
2022-10-09T01:34:52.766Z,98870.00
2022-10-09T01:35:06.529Z,98866.50
2022-10-09T01:35:39.278Z,98867.25
2022-10-09T01:36:12.176Z,98882.69
2022-10-09T01:36:25.237Z,98876.50
2022-10-09T01:36:38.247Z,98874.63
2022-10-09T01:36:51.298Z,98878.84
2022-10-09T01:37:04.989Z,98876.12
2022-10-09T01:37:37.750Z,98883.31
2022-10-09T01:38:10.496Z,98878.75
2022-10-09T01:38:23.499Z,98871.66
2022-10-09T01:38:58.822Z,98880.31
2022-10-09T01:39:31.799Z,98870.53
2022-10-09T01:40:05.382Z,98875.69
2022-10-09T01:40:18.416Z,98882.97
2022-10-09T01:40:52.651Z,98868.88
2022-10-09T01:41:05.810Z,98879.63
2022-10-09T01:41:38.739Z,98868.03
2022-10-09T01:42:12.756Z,98873.47
2022-10-09T01:42:26.354Z,98879.53
2022-10-09T01:42:59.333Z,98874.06
2022-10-09T01:43:32.274Z,98870.19
2022-10-09T01:43:45.299Z,98872.97
2022-10-09T01:44:28.266Z,98878.34
2022-10-09T01:44:41.246Z,98873.75
2022-10-09T01:45:15.416Z,98872.03
2022-10-09T01:45:40.100Z,98875.53
2022-10-09T01:46:20.243Z,98873.03
2022-10-09T01:46:33.597Z,98885.28
2022-10-09T01:47:06.553Z,98875.50
2022-10-09T01:47:20.872Z,98870.97
2022-10-09T01:47:33.912Z,98876.22
2022-10-09T01:47:47.037Z,98874.63
2022-10-09T01:48:25.301Z,98882.63
2022-10-09T01:49:32.599Z,98881.59
2022-10-09T01:50:06.148Z,98885.56
2022-10-09T01:50:42.657Z,98876.28
2022-10-09T01:50:58.369Z,98878.09
2022-10-09T01:51:38.764Z,98877.22
2022-10-09T01:52:06.876Z,98884.25
2022-10-09T01:52:47.700Z,98875.50
2022-10-09T01:53:20.262Z,98887.00
2022-10-09T01:53:33.739Z,98876.06
2022-10-09T01:53:46.745Z,98879.72
2022-10-09T01:54:01.403Z,98876.06
2022-10-09T01:54:14.382Z,98898.91
2022-10-09T01:54:50.210Z,98882.09
2022-10-09T01:55:18.108Z,98874.91
2022-10-09T01:56:00.488Z,98868.16
2022-10-09T01:56:15.020Z,98866.28
2022-10-09T01:56:27.801Z,98865.25
2022-10-09T02:07:12.063Z,98878.28
2022-10-09T02:07:45.858Z,98878.28
2022-10-09T02:07:58.934Z,98889.94
2022-10-09T02:08:12.749Z,98882.66
2022-10-09T02:08:50.351Z,98886.03
2022-10-09T02:09:06.357Z,98894.25
2022-10-09T02:09:19.277Z,98882.59
2022-10-09T02:09:32.149Z,98887.75
2022-10-09T02:09:45.000Z,98889.47
2022-10-09T02:09:58.345Z,98883.16
2022-10-09T02:10:32.171Z,98887.69
2022-10-09T02:10:45.640Z,98892.09
2022-10-09T02:10:59.045Z,98886.81
2022-10-09T02:11:14.797Z,98885.00
2022-10-09T02:11:29.356Z,98887.56
2022-10-09T02:11:42.653Z,98887.63
2022-10-09T02:11:56.230Z,98892.94
2022-10-09T02:12:09.961Z,98881.72
2022-10-09T02:12:23.020Z,98899.78
2022-10-09T02:12:38.720Z,98885.56
2022-10-09T02:13:11.487Z,98897.63
2022-10-09T02:13:24.408Z,98888.63
2022-10-09T02:13:37.777Z,98891.34
2022-10-09T02:13:52.916Z,98905.44
2022-10-09T02:14:25.674Z,98897.47
2022-10-09T02:14:39.494Z,98890.28
2022-10-09T02:14:52.337Z,98891.06
2022-10-09T02:16:09.534Z,98894.59
2022-10-09T02:16:48.615Z,98892.09
2022-10-09T02:17:18.413Z,98896.47
2022-10-09T02:17:33.234Z,98897.81
2022-10-09T02:17:48.509Z,98889.91
2022-10-09T02:18:32.276Z,98897.81
2022-10-09T02:18:47.009Z,98900.47
2022-10-09T02:19:01.542Z,98892.50
2022-10-09T02:19:44.352Z,98893.59
2022-10-09T02:20:09.082Z,98895.94
2022-10-09T02:20:45.713Z,98895.03
2022-10-09T02:21:00.661Z,98893.44
2022-10-09T02:21:24.851Z,98892.66
2022-10-09T02:22:03.565Z,98897.72
2022-10-09T02:22:36.324Z,98895.56
2022-10-09T02:22:49.380Z,98894.09
2022-10-09T02:23:03.601Z,98893.00
2022-10-09T02:23:16.905Z,98902.84
2022-10-09T02:23:29.948Z,98893.06
2022-10-09T02:23:43.129Z,98894.94
2022-10-09T02:23:57.224Z,98893.59
2022-10-09T02:24:12.672Z,98895.37
2022-10-09T02:24:25.518Z,98891.94
2022-10-09T02:24:39.480Z,98896.31
2022-10-09T02:24:52.784Z,98895.37
2022-10-09T02:25:06.623Z,98893.50
2022-10-09T02:25:19.483Z,98901.25
2022-10-09T02:25:32.345Z,98900.34
2022-10-09T02:25:45.208Z,98890.59
2022-10-09T02:25:57.996Z,98898.59
2022-10-09T02:26:10.849Z,98909.91
2022-10-09T02:26:23.691Z,98908.97
2022-10-09T02:26:57.501Z,98897.38
2022-10-09T02:27:11.517Z,98897.22
2022-10-09T02:27:24.785Z,98900.91
2022-10-09T02:27:38.127Z,98898.22
2022-10-09T02:27:50.968Z,98905.97
2022-10-09T02:28:05.581Z,98890.94
2022-10-09T02:28:18.526Z,98897.38
2022-10-09T02:28:31.964Z,98900.12
2022-10-09T02:28:46.077Z,98898.31
2022-10-09T02:28:59.351Z,98898.22
2022-10-09T02:29:14.486Z,98908.03
2022-10-09T02:29:27.442Z,98899.00
2022-10-09T02:29:41.253Z,98903.63
2022-10-09T02:29:54.208Z,98905.34
2022-10-09T02:30:07.905Z,98900.91
2022-10-09T02:30:20.746Z,98906.38
2022-10-09T02:30:56.466Z,98901.25
2022-10-09T02:31:30.393Z,98895.06
2022-10-09T02:31:43.413Z,98902.78
2022-10-09T02:31:56.243Z,98907.50
2022-10-09T02:32:11.648Z,98901.41
2022-10-09T02:32:24.514Z,98907.50
2022-10-09T02:32:37.396Z,98904.84
2022-10-09T02:32:53.651Z,98909.13
2022-10-09T02:33:06.524Z,98902.00
2022-10-09T02:33:19.486Z,98899.25
2022-10-09T02:33:33.201Z,98903.00
2022-10-09T02:33:46.094Z,98901.25
2022-10-09T02:34:03.768Z,98910.69
2022-10-09T02:34:17.984Z,98906.22
2022-10-09T02:34:30.811Z,98905.28
2022-10-09T02:34:43.852Z,98902.69
2022-10-09T02:34:56.780Z,98909.75
2022-10-09T02:35:09.771Z,98908.81
2022-10-09T02:35:22.644Z,98909.81
2022-10-09T02:35:35.731Z,98897.28
2022-10-09T02:36:07.772Z,98906.91
2022-10-09T02:36:20.861Z,98908.81
2022-10-09T02:36:33.793Z,98902.47
2022-10-09T02:36:46.997Z,98910.41
2022-10-09T02:36:59.875Z,98905.19
2022-10-09T02:37:13.161Z,98908.97
2022-10-09T02:37:26.000Z,98899.34
2022-10-09T02:37:38.831Z,98901.84
2022-10-09T02:37:51.635Z,98901.59
2022-10-09T02:38:04.536Z,98904.25
2022-10-09T02:38:35.991Z,98901.59
2022-10-09T02:38:48.850Z,98913.19
2022-10-09T02:39:21.577Z,98902.53
2022-10-09T02:39:34.938Z,98904.25
2022-10-09T02:40:10.703Z,98903.47
2022-10-09T02:40:40.930Z,98904.06
2022-10-09T02:40:57.623Z,98906.88
2022-10-09T02:41:10.450Z,98908.66
2022-10-09T02:41:23.504Z,98905.19
2022-10-09T02:41:36.325Z,98905.94
2022-10-09T02:41:49.233Z,98899.59
2022-10-09T02:42:02.977Z,98909.53
2022-10-09T02:42:16.324Z,98906.81
2022-10-09T02:42:29.287Z,98907.94
2022-10-09T02:42:42.135Z,98907.88
2022-10-09T02:42:55.363Z,98905.06
2022-10-09T02:43:08.363Z,98909.53
2022-10-09T02:43:21.155Z,98910.31
2022-10-09T02:43:34.420Z,98912.41
2022-10-09T02:43:47.295Z,98913.25
2022-10-09T02:44:00.217Z,98901.75
2022-10-09T02:44:33.013Z,98906.06
2022-10-09T02:44:45.856Z,98909.53
2022-10-09T02:45:18.590Z,98905.19
2022-10-09T02:45:51.374Z,98909.66
2022-10-09T02:46:04.729Z,98912.19
2022-10-09T02:46:17.750Z,98918.31
2022-10-09T02:46:30.709Z,98905.78
2022-10-09T02:46:43.852Z,98917.44
2022-10-09T02:46:57.161Z,98914.62
2022-10-09T02:47:10.875Z,98915.66
2022-10-09T02:47:23.663Z,98906.62
2022-10-09T02:47:36.934Z,98908.19
2022-10-09T02:48:10.130Z,98916.13
2022-10-09T02:48:22.940Z,98909.84
2022-10-09T02:48:35.740Z,98912.50
2022-10-09T02:48:49.296Z,98913.53
2022-10-09T02:49:02.207Z,98915.25
2022-10-09T02:49:15.508Z,98915.16
2022-10-09T02:49:48.741Z,98915.94
2022-10-09T02:50:01.536Z,98908.09
2022-10-09T02:50:35.435Z,98909.94
2022-10-09T02:50:48.516Z,98915.16
2022-10-09T02:51:21.379Z,98913.44
2022-10-09T02:51:34.482Z,98911.81
2022-10-09T02:51:47.576Z,98913.53
2022-10-09T02:52:00.596Z,98917.06
2022-10-09T02:52:13.452Z,98917.91
2022-10-09T02:52:26.252Z,98931.06
2022-10-09T02:52:39.080Z,98917.13
2022-10-09T02:52:52.026Z,98925.81
2022-10-09T02:53:04.897Z,98928.09
2022-10-09T02:53:17.734Z,98915.50
2022-10-09T02:53:54.753Z,98922.31
2022-10-09T02:54:09.101Z,98917.13
2022-10-09T02:54:21.904Z,98923.16
2022-10-09T02:54:54.644Z,98916.44
2022-10-09T02:55:08.299Z,98916.81
2022-10-09T02:55:21.108Z,98921.09
2022-10-09T02:55:53.862Z,98920.50
2022-10-09T02:56:06.679Z,98916.88
2022-10-09T02:56:20.317Z,98921.03
2022-10-09T02:56:37.957Z,98920.16
2022-10-09T02:56:51.693Z,98918.44
2022-10-09T02:57:04.585Z,98927.53
2022-10-09T02:57:17.426Z,98921.19
2022-10-09T02:57:30.724Z,98931.12
2022-10-09T02:57:43.572Z,98927.37
2022-10-09T02:58:16.396Z,98927.28
2022-10-09T02:58:32.707Z,98923.69
2022-10-09T02:58:45.786Z,98926.84
2022-10-09T02:58:59.054Z,98927.63
2022-10-09T02:59:11.899Z,98928.47
2022-10-09T02:59:24.826Z,98934.66
2022-10-09T02:59:37.647Z,98929.41
2022-10-09T02:59:50.499Z,98925.81
2022-10-09T03:00:23.280Z,98924.09
2022-10-09T03:00:37.969Z,98934.66
2022-10-09T03:00:51.892Z,98930.81
2022-10-09T03:01:05.110Z,98934.41
2022-10-09T03:01:18.208Z,98932.84
2022-10-09T03:01:31.097Z,98931.84
2022-10-09T03:01:44.098Z,98927.37
2022-10-09T03:02:16.243Z,98934.25
2022-10-09T03:02:29.211Z,98927.91
2022-10-09T03:02:42.478Z,98933.25
2022-10-09T03:02:57.450Z,98932.69
2022-10-09T03:03:10.527Z,98935.22
2022-10-09T03:03:23.349Z,98932.53
2022-10-09T03:03:56.075Z,98930.81
2022-10-09T03:04:08.917Z,98926.16
2022-10-09T03:04:22.194Z,98943.19
2022-10-09T03:04:36.737Z,98940.84
2022-10-09T03:05:09.225Z,98936.94
2022-10-09T03:05:22.044Z,98933.25
2022-10-09T03:05:35.076Z,98926.19
2022-10-09T03:05:48.033Z,98924.56
2022-10-09T03:06:23.370Z,98933.31
2022-10-09T03:06:56.099Z,98925.91
2022-10-09T03:07:08.934Z,98939.38
2022-10-09T03:07:22.659Z,98934.13
2022-10-09T03:07:56.308Z,98935.91
2022-10-09T03:08:09.122Z,98933.19
2022-10-09T03:08:21.920Z,98941.19
2022-10-09T03:08:34.954Z,98932.16
2022-10-09T03:08:48.658Z,98926.84
2022-10-09T03:09:01.645Z,98936.63
2022-10-09T03:09:14.477Z,98938.44
2022-10-09T03:09:47.208Z,98935.78
2022-10-09T03:10:00.137Z,98944.47
2022-10-09T03:10:32.854Z,98941.03
2022-10-09T03:10:46.212Z,98935.22
2022-10-09T03:10:59.257Z,98938.09
2022-10-09T03:11:32.884Z,98946.25
2022-10-09T03:12:28.611Z,98946.94
2022-10-09T03:12:41.452Z,98946.50
2022-10-09T03:12:54.457Z,98942.13
2022-10-09T03:13:07.313Z,98944.84
2022-10-09T03:13:21.113Z,98938.72
2022-10-09T03:13:34.011Z,98942.16
2022-10-09T03:13:46.919Z,98936.84
2022-10-09T03:13:59.790Z,98937.16
2022-10-09T03:14:13.026Z,98946.78
2022-10-09T03:14:25.867Z,98935.22
2022-10-09T03:14:38.724Z,98937.88
2022-10-09T03:14:51.558Z,98942.56
2022-10-09T03:15:04.630Z,98939.81
2022-10-09T03:15:17.647Z,98944.94
2022-10-09T03:15:33.653Z,98945.47
2022-10-09T03:15:46.511Z,98946.34
2022-10-09T03:16:04.357Z,98942.56
2022-10-09T03:16:22.140Z,98948.06
2022-10-09T03:16:35.101Z,98938.34
2022-10-09T03:16:50.827Z,98944.63
2022-10-09T03:17:04.087Z,98945.22
2022-10-09T03:17:16.913Z,98946.16
2022-10-09T03:17:29.787Z,98945.31
2022-10-09T03:17:42.649Z,98943.59
2022-10-09T03:17:55.464Z,98947.13
2022-10-09T03:18:28.204Z,98946.25
2022-10-09T03:18:41.065Z,98957.00
2022-10-09T03:18:53.905Z,98945.62
2022-10-09T03:19:07.277Z,98948.31
2022-10-09T03:19:20.082Z,98955.50
2022-10-09T03:19:32.910Z,98953.78
2022-10-09T03:19:45.723Z,98954.41
2022-10-09T03:19:58.637Z,98943.59
2022-10-09T03:20:11.869Z,98950.88
2022-10-09T03:20:24.720Z,98953.56
2022-10-09T03:20:57.524Z,98953.56
2022-10-09T03:21:12.255Z,98940.31
2022-10-09T03:21:26.453Z,98947.69
2022-10-09T03:21:39.288Z,98941.53
2022-10-09T03:21:52.112Z,98947.69
2022-10-09T03:22:05.070Z,98951.25
2022-10-09T03:22:17.943Z,98945.91
2022-10-09T03:22:30.833Z,98942.47
2022-10-09T03:22:43.925Z,98945.78
2022-10-09T03:22:57.241Z,98945.62
2022-10-09T03:23:10.231Z,98942.03
2022-10-09T03:23:43.082Z,98942.03
2022-10-09T03:23:56.079Z,98945.62
2022-10-09T03:24:09.702Z,98943.84
2022-10-09T03:24:22.571Z,98945.00
2022-10-09T03:24:35.417Z,98953.12
2022-10-09T03:25:08.266Z,98952.19
2022-10-09T03:25:21.211Z,98945.91
2022-10-09T03:25:34.037Z,98952.91
2022-10-09T03:25:55.992Z,98953.97
2022-10-09T03:26:13.756Z,98954.84
2022-10-09T03:26:27.119Z,98951.41
2022-10-09T03:26:59.859Z,98957.37
2022-10-09T03:27:32.602Z,98950.19
2022-10-09T03:27:45.445Z,98950.19
2022-10-09T03:27:58.312Z,98951.63
2022-10-09T03:28:11.361Z,98953.28
2022-10-09T03:28:47.532Z,98955.78
2022-10-09T03:29:00.412Z,98953.44
2022-10-09T03:29:13.251Z,98952.19
2022-10-09T03:29:46.246Z,98954.91
2022-10-09T03:30:18.991Z,98960.12
2022-10-09T03:30:52.463Z,98964.00
2022-10-09T03:31:05.471Z,98961.09
2022-10-09T03:31:49.929Z,98962.81
2022-10-09T03:31:53.705Z,98960.91
2022-10-09T03:32:06.936Z,98963.00
2022-10-09T03:32:40.217Z,98963.84
2022-10-09T03:32:53.084Z,98956.56
2022-10-09T03:33:25.809Z,98961.03
2022-10-09T03:33:38.630Z,98954.56
2022-10-09T03:33:51.656Z,98958.00
2022-10-09T03:34:04.529Z,98955.34
2022-10-09T03:34:37.274Z,98958.88
2022-10-09T03:34:50.128Z,98952.84
2022-10-09T03:35:03.007Z,98954.41
2022-10-09T03:35:35.826Z,98959.88
2022-10-09T03:35:49.181Z,98960.91
2022-10-09T03:36:02.024Z,98948.31
2022-10-09T03:36:15.342Z,98955.50
2022-10-09T03:36:48.068Z,98954.56
2022-10-09T03:37:00.968Z,98955.50
2022-10-09T03:37:33.706Z,98953.69
2022-10-09T03:37:46.523Z,98957.47
2022-10-09T03:38:19.286Z,98948.56
2022-10-09T03:38:32.113Z,98952.69
2022-10-09T03:39:05.405Z,98948.22
2022-10-09T03:39:18.435Z,98950.19
2022-10-09T03:39:31.636Z,98955.50
2022-10-09T03:40:05.177Z,98955.34
2022-10-09T03:40:18.405Z,98958.88
2022-10-09T03:40:31.576Z,98954.25
2022-10-09T03:52:49.896Z,98989.81
2022-10-09T03:53:03.170Z,98981.84
2022-10-09T03:53:36.068Z,98980.03
2022-10-09T03:54:09.045Z,98985.94
2022-10-09T03:54:21.884Z,98984.22
2022-10-09T03:54:34.946Z,98988.75
2022-10-09T03:55:08.389Z,98977.19
2022-10-09T03:55:41.407Z,98980.03
2022-10-09T03:55:55.378Z,98974.44
2022-10-09T03:56:08.346Z,98985.78
2022-10-09T03:57:11.172Z,98981.50
2022-10-09T03:57:24.212Z,98981.25
2022-10-09T03:57:37.523Z,98979.75
2022-10-09T03:58:10.567Z,98980.78
2022-10-09T03:58:23.611Z,98980.41
2022-10-09T03:58:36.573Z,98976.88
2022-10-09T03:59:10.109Z,98975.00
2022-10-09T03:59:23.312Z,98973.19
2022-10-09T03:59:56.235Z,98973.13
2022-10-09T04:00:10.668Z,98972.41
2022-10-09T04:00:23.893Z,98969.69
2022-10-09T04:00:36.750Z,98970.53
2022-10-09T04:00:52.972Z,98967.31
2022-10-09T04:01:05.870Z,98968.09
2022-10-09T04:01:19.237Z,98972.25
2022-10-09T04:01:32.640Z,98970.78
2022-10-09T04:01:45.642Z,98973.28
2022-10-09T04:01:58.535Z,98971.56
2022-10-09T04:02:50.095Z,98969.81
2022-10-09T04:03:03.305Z,98969.56
2022-10-09T04:03:16.322Z,98968.62
2022-10-09T04:03:29.364Z,98978.31
2022-10-09T04:04:02.376Z,98977.53
2022-10-09T04:04:15.819Z,98978.31
2022-10-09T04:04:48.580Z,98975.78
2022-10-09T04:05:01.546Z,98971.84
2022-10-09T04:05:35.063Z,98974.72
2022-10-09T04:05:48.114Z,98974.88
2022-10-09T04:06:01.211Z,98983.22
2022-10-09T04:06:33.994Z,98981.25
2022-10-09T04:06:46.873Z,98977.75
2022-10-09T04:06:59.949Z,98974.13
2022-10-09T04:07:13.717Z,98979.37
2022-10-09T04:07:27.069Z,98974.88
2022-10-09T04:07:40.532Z,98972.22
2022-10-09T04:07:53.422Z,98980.06
2022-10-09T04:08:26.682Z,98971.13
2022-10-09T04:08:40.060Z,98974.28
2022-10-09T04:08:53.100Z,98967.09
2022-10-09T04:09:06.206Z,98968.66
2022-10-09T04:09:19.228Z,98966.69
2022-10-09T04:09:32.138Z,98962.31
2022-10-09T04:09:45.542Z,98965.22
2022-10-09T04:09:58.416Z,98966.44
2022-10-09T04:10:12.410Z,98963.94
2022-10-09T04:10:25.333Z,98963.28
2022-10-09T04:10:59.143Z,98962.78
2022-10-09T04:11:32.087Z,98963.50
2022-10-09T04:12:04.895Z,98961.09
2022-10-09T04:12:37.851Z,98955.78
2022-10-09T04:12:51.196Z,98965.66
2022-10-09T04:13:24.762Z,98967.53
2022-10-09T04:13:58.530Z,98969.31
2022-10-09T04:14:31.439Z,98977.88
2022-10-09T04:15:04.961Z,98985.94
2022-10-09T04:15:18.047Z,98980.06
2022-10-09T04:15:53.681Z,98979.19
2022-10-09T04:16:06.735Z,98983.66
2022-10-09T04:16:39.458Z,98974.06
2022-10-09T04:16:52.420Z,98976.81
2022-10-09T04:17:05.272Z,98981.56
2022-10-09T04:17:18.744Z,98976.94
2022-10-09T04:17:52.147Z,98971.63
2022-10-09T04:18:25.235Z,98976.94
2022-10-09T04:18:41.797Z,98971.69
2022-10-09T04:19:15.018Z,98969.81
2022-10-09T04:19:47.755Z,98969.69
2022-10-09T04:20:00.912Z,98971.47
2022-10-09T04:20:14.231Z,98975.06
2022-10-09T04:20:27.089Z,98974.00
2022-10-09T04:20:51.058Z,98981.00